Time;durP1;ratioP1;P1;durP2;ratioP2;P2;SDS_P1;SDS_P2;PMS_P1;PMS_P2;Temp;Humidity;BMP_temperature;BMP_pressure;BME280_temperature;BME280_humidity;BME280_pressure;Samples;Min_cycle;Max_cycle;Signal;HPM_P1;HPM_P2
2023/03/04 00:00:42;;;;;;;23.17;9.90;;;;;;;;;;5014873;28;20033;-62
2023/03/04 00:03:09;;;;;;;24.65;10.73;;;;;;;;;;5029764;28;20053;-63
2023/03/04 00:05:35;;;;;;;27.55;10.55;;;;;;;;;;5032407;28;20013;-62
2023/03/04 00:08:01;;;;;;;24.60;9.43;;;;;;;;;;5035003;28;20406;-65
2023/03/04 00:10:27;;;;;;;29.05;11.35;;;;;;;;;;5034048;28;20087;-63
2023/03/04 00:12:53;;;;;;;25.20;10.75;;;;;;;;;;5033843;28;20080;-63
2023/03/04 00:15:19;;;;;;;29.70;10.85;;;;;;;;;;5032137;28;20025;-61
2023/03/04 00:17:45;;;;;;;28.92;11.30;;;;;;;;;;5033597;28;20026;-63
2023/03/04 00:20:12;;;;;;;23.52;10.88;;;;;;;;;;5033387;28;20026;-62
2023/03/04 00:22:38;;;;;;;23.38;9.98;;;;;;;;;;5032365;28;20026;-63
2023/03/04 00:25:04;;;;;;;26.50;11.45;;;;;;;;;;5032605;28;20024;-62
2023/03/04 00:27:30;;;;;;;22.17;10.25;;;;;;;;;;5033727;28;20557;-63
2023/03/04 00:29:56;;;;;;;25.27;10.48;;;;;;;;;;5032559;28;20108;-62
2023/03/04 00:32:22;;;;;;;22.27;10.57;;;;;;;;;;5032810;28;20041;-62
2023/03/04 00:34:48;;;;;;;24.52;9.68;;;;;;;;;;5033810;28;20022;-62
2023/03/04 00:37:14;;;;;;;22.20;10.85;;;;;;;;;;5033626;28;20485;-63
2023/03/04 00:39:40;;;;;;;25.40;10.27;;;;;;;;;;5033633;28;20040;-63
2023/03/04 00:42:06;;;;;;;31.02;11.02;;;;;;;;;;5025614;28;20024;-62
2023/03/04 00:44:32;;;;;;;20.70;9.82;;;;;;;;;;5033267;28;20029;-63
2023/03/04 00:46:58;;;;;;;23.50;10.02;;;;;;;;;;5033188;28;20419;-64
2023/03/04 00:49:24;;;;;;;27.70;10.07;;;;;;;;;;5032053;28;20033;-63
2023/03/04 00:51:50;;;;;;;26.52;10.38;;;;;;;;;;5033221;28;20112;-62
2023/03/04 00:54:16;;;;;;;22.58;10.20;;;;;;;;;;5031391;28;20112;-63
2023/03/04 00:56:42;;;;;;;27.77;13.75;;;;;;;;;;5030803;28;20014;-63
2023/03/04 00:59:08;;;;;;;21.45;10.25;;;;;;;;;;5033118;28;20086;-63
2023/03/04 01:01:34;;;;;;;23.08;10.05;;;;;;;;;;5032991;28;20398;-62
2023/03/04 01:04:00;;;;;;;26.35;10.07;;;;;;;;;;5031699;28;20022;-62
2023/03/04 01:06:26;;;;;;;29.60;10.75;;;;;;;;;;5031940;28;20045;-62
2023/03/04 01:08:52;;;;;;;23.15;11.32;;;;;;;;;;5032865;28;20104;-63
2023/03/04 01:11:18;;;;;;;19.60;9.48;;;;;;;;;;5032950;28;20114;-62
2023/03/04 01:13:45;;;;;;;24.83;10.30;;;;;;;;;;5031557;28;20022;-63
2023/03/04 01:16:11;;;;;;;27.60;9.93;;;;;;;;;;5032715;28;20465;-63
2023/03/04 01:18:38;;;;;;;19.73;10.10;;;;;;;;;;5033140;28;20477;-63
2023/03/04 01:21:04;;;;;;;23.10;9.77;;;;;;;;;;5032742;28;20033;-64
2023/03/04 01:23:30;;;;;;;28.27;10.80;;;;;;;;;;5032815;28;20049;-64
2023/03/04 01:25:56;;;;;;;26.20;9.80;;;;;;;;;;5031768;28;20088;-63
2023/03/04 01:28:22;;;;;;;25.75;10.57;;;;;;;;;;5032753;28;20025;-65
2023/03/04 01:30:48;;;;;;;23.50;9.85;;;;;;;;;;5032764;28;20030;-64
2023/03/04 01:33:14;;;;;;;24.90;10.50;;;;;;;;;;5031059;28;20068;-64
2023/03/04 01:35:40;;;;;;;22.38;9.57;;;;;;;;;;5032593;28;20496;-64
2023/03/04 01:38:06;;;;;;;20.83;9.25;;;;;;;;;;5031717;28;20033;-64
2023/03/04 01:40:32;;;;;;;24.48;9.75;;;;;;;;;;5031259;28;20392;-64
2023/03/04 01:42:58;;;;;;;25.23;9.70;;;;;;;;;;5032437;28;20048;-64
2023/03/04 01:45:25;;;;;;;17.45;9.95;;;;;;;;;;5032285;28;20026;-64
2023/03/04 01:47:51;;;;;;;27.27;10.35;;;;;;;;;;5031015;28;20076;-64
2023/03/04 01:50:27;;;;;;;22.70;9.32;;;;;;;;;;5030695;28;20512;-66
2023/03/04 01:52:53;;;;;;;24.80;9.32;;;;;;;;;;5031230;28;20120;-64
2023/03/04 01:55:20;;;;;;;26.95;9.68;;;;;;;;;;5030905;28;20029;-64
2023/03/04 01:57:47;;;;;;;29.97;10.63;;;;;;;;;;5031040;28;20394;-63
2023/03/04 02:00:19;;;;;;;25.17;9.57;;;;;;;;;;5032103;28;20022;-64
2023/03/04 02:02:46;;;;;;;23.83;9.73;;;;;;;;;;5030717;28;20029;-64
2023/03/04 02:05:12;;;;;;;24.20;9.23;;;;;;;;;;5031963;28;20029;-63
2023/03/04 02:07:38;;;;;;;30.83;10.80;;;;;;;;;;5032170;28;20030;-64
2023/03/04 02:10:04;;;;;;;21.50;9.73;;;;;;;;;;5030758;28;20066;-64
2023/03/04 02:12:30;;;;;;;20.20;10.02;;;;;;;;;;5032049;28;20104;-64
2023/03/04 02:14:56;;;;;;;22.67;9.82;;;;;;;;;;5031791;28;20025;-64
2023/03/04 02:17:26;;;;;;;21.58;10.65;;;;;;;;;;5032034;28;20029;-63
2023/03/04 02:19:52;;;;;;;22.15;9.10;;;;;;;;;;5030638;28;20374;-64
2023/03/04 02:22:18;;;;;;;23.10;9.65;;;;;;;;;;5031856;28;20040;-59
2023/03/04 02:24:53;;;;;;;27.85;9.57;;;;;;;;;;5031717;28;20025;-63
2023/03/04 02:27:19;;;;;;;22.40;10.30;;;;;;;;;;5030755;28;20026;-63
2023/03/04 02:29:45;;;;;;;22.17;10.32;;;;;;;;;;5031636;28;20101;-64
2023/03/04 02:32:12;;;;;;;32.53;10.73;;;;;;;;;;5030584;28;20530;-64
2023/03/04 02:34:40;;;;;;;21.45;9.82;;;;;;;;;;5030178;28;20370;-63
2023/03/04 02:37:06;;;;;;;22.58;9.18;;;;;;;;;;5031617;28;20029;-64
2023/03/04 02:39:34;;;;;;;23.40;9.63;;;;;;;;;;5031768;28;20022;-64
2023/03/04 02:42:01;;;;;;;30.47;10.47;;;;;;;;;;5031507;28;20022;-64
2023/03/04 02:44:28;;;;;;;25.80;10.77;;;;;;;;;;5030152;28;20022;-64
2023/03/04 02:46:55;;;;;;;18.15;9.00;;;;;;;;;;5031654;28;20495;-63
2023/03/04 02:49:21;;;;;;;22.05;10.05;;;;;;;;;;5034779;28;20129;-64
2023/03/04 02:51:50;;;;;;;20.23;9.68;;;;;;;;;;5035371;28;20108;-62
2023/03/04 02:54:21;;;;;;;19.50;8.80;;;;;;;;;;5034193;28;20044;-64
2023/03/04 02:56:52;;;;;;;19.55;9.10;;;;;;;;;;5035651;28;20057;-62
2023/03/04 02:59:19;;;;;;;22.83;9.57;;;;;;;;;;5034195;28;20132;-63
2023/03/04 03:01:45;;;;;;;18.42;9.40;;;;;;;;;;5034120;28;20508;-64
2023/03/04 03:04:12;;;;;;;18.45;9.32;;;;;;;;;;5035110;28;20120;-63
2023/03/04 03:06:38;;;;;;;20.55;9.35;;;;;;;;;;5034239;28;20049;-64
2023/03/04 03:09:04;;;;;;;21.38;9.73;;;;;;;;;;5035362;28;20033;-64
2023/03/04 03:11:30;;;;;;;22.75;9.82;;;;;;;;;;5035363;28;20385;-63
2023/03/04 03:13:57;;;;;;;21.90;9.90;;;;;;;;;;5033684;28;20116;-64
2023/03/04 03:16:23;;;;;;;26.60;11.00;;;;;;;;;;5035160;28;20045;-66
2023/03/04 03:18:49;;;;;;;21.05;10.13;;;;;;;;;;5035130;28;20064;-63
2023/03/04 03:21:15;;;;;;;29.63;11.15;;;;;;;;;;5034014;28;20064;-64
2023/03/04 03:23:42;;;;;;;21.67;9.50;;;;;;;;;;5034840;28;20361;-64
2023/03/04 03:26:08;;;;;;;19.42;9.32;;;;;;;;;;5035185;28;20108;-63
2023/03/04 03:28:34;;;;;;;21.33;9.68;;;;;;;;;;5034914;28;20025;-64
2023/03/04 03:31:00;;;;;;;26.77;10.45;;;;;;;;;;5033786;28;20548;-64
2023/03/04 03:33:26;;;;;;;18.88;9.43;;;;;;;;;;5034686;28;20113;-64
2023/03/04 03:35:52;;;;;;;18.20;9.88;;;;;;;;;;5034894;28;20052;-67
2023/03/04 03:38:18;;;;;;;26.98;10.07;;;;;;;;;;5033446;28;20033;-63
2023/03/04 03:40:44;;;;;;;20.30;9.30;;;;;;;;;;5034821;28;20029;-65
2023/03/04 03:43:11;;;;;;;26.45;9.15;;;;;;;;;;5033185;28;20017;-64
2023/03/04 03:45:37;;;;;;;20.10;8.90;;;;;;;;;;5034526;28;20025;-63
2023/03/04 03:48:03;;;;;;;23.65;10.00;;;;;;;;;;5035107;28;20028;-63
2023/03/04 03:50:29;;;;;;;20.20;9.30;;;;;;;;;;5032811;28;20035;-63
2023/03/04 03:52:55;;;;;;;19.27;9.95;;;;;;;;;;5034535;28;20108;-64
2023/03/04 03:55:21;;;;;;;22.40;9.02;;;;;;;;;;5034327;28;20021;-64
2023/03/04 03:57:47;;;;;;;27.17;10.05;;;;;;;;;;5034385;28;20033;-63
2023/03/04 04:00:13;;;;;;;21.40;8.95;;;;;;;;;;5031941;28;20033;-64
2023/03/04 04:02:40;;;;;;;17.65;8.95;;;;;;;;;;5034350;28;20029;-64
2023/03/04 04:05:06;;;;;;;19.50;9.43;;;;;;;;;;5034314;28;20476;-65
2023/03/04 04:07:32;;;;;;;18.83;9.05;;;;;;;;;;5034392;28;20029;-64
2023/03/04 04:09:58;;;;;;;25.85;9.88;;;;;;;;;;5034592;28;20103;-64
2023/03/04 04:12:24;;;;;;;24.35;9.43;;;;;;;;;;5034249;28;20060;-63
2023/03/04 04:14:50;;;;;;;19.17;9.65;;;;;;;;;;5033999;28;20426;-63
2023/03/04 04:17:16;;;;;;;20.52;9.10;;;;;;;;;;5033079;28;20120;-63
2023/03/04 04:19:42;;;;;;;20.10;9.50;;;;;;;;;;5032932;28;20095;-63
2023/03/04 04:22:13;;;;;;;21.92;8.85;;;;;;;;;;5034252;28;20030;-64
2023/03/04 04:24:39;;;;;;;22.83;9.05;;;;;;;;;;5034002;28;20029;-62
2023/03/04 04:27:05;;;;;;;18.17;8.13;;;;;;;;;;5033914;28;20022;-63
2023/03/04 04:29:31;;;;;;;20.65;8.10;;;;;;;;;;5034007;28;20022;-63
2023/03/04 04:31:57;;;;;;;22.05;10.18;;;;;;;;;;5032686;28;20494;-63
2023/03/04 04:34:26;;;;;;;20.83;9.57;;;;;;;;;;5033562;28;20021;-63
2023/03/04 04:36:52;;;;;;;32.67;10.35;;;;;;;;;;5033932;28;20025;-63
2023/03/04 04:39:18;;;;;;;22.25;10.43;;;;;;;;;;5033719;28;20021;-65
2023/03/04 04:41:45;;;;;;;23.98;9.13;;;;;;;;;;5033875;28;20075;-63
2023/03/04 04:44:11;;;;;;;19.70;9.00;;;;;;;;;;5033638;28;20037;-63
2023/03/04 04:46:37;;;;;;;23.65;8.80;;;;;;;;;;5032850;28;20111;-64
2023/03/04 04:49:04;;;;;;;22.23;9.02;;;;;;;;;;5033894;28;20030;-63
2023/03/04 04:51:30;;;;;;;18.70;8.55;;;;;;;;;;5032323;28;20037;-63
2023/03/04 04:53:56;;;;;;;20.67;9.45;;;;;;;;;;5033837;28;20033;-64
2023/03/04 04:56:25;;;;;;;20.42;8.93;;;;;;;;;;5033706;28;20485;-61
2023/03/04 04:58:51;;;;;;;19.08;9.05;;;;;;;;;;5033426;28;20033;-63
2023/03/04 05:01:17;;;;;;;21.33;9.43;;;;;;;;;;5032350;28;20401;-63
2023/03/04 05:03:43;;;;;;;18.60;9.10;;;;;;;;;;5033297;28;20025;-64
2023/03/04 05:06:10;;;;;;;18.77;9.10;;;;;;;;;;5032194;28;20053;-64
2023/03/04 05:08:36;;;;;;;19.92;9.02;;;;;;;;;;5033271;28;20025;-67
2023/03/04 05:11:02;;;;;;;19.00;9.02;;;;;;;;;;5033000;28;20056;-63
2023/03/04 05:13:28;;;;;;;18.75;8.82;;;;;;;;;;5032809;28;20064;-63
2023/03/04 05:15:55;;;;;;;21.08;9.63;;;;;;;;;;5033153;28;20061;-64
2023/03/04 05:18:22;;;;;;;21.85;10.45;;;;;;;;;;5031781;28;20176;-64
2023/03/04 05:20:52;;;;;;;19.00;9.25;;;;;;;;;;5031430;28;20025;-63
2023/03/04 05:23:18;;;;;;;16.13;9.02;;;;;;;;;;5031242;28;20028;-64
2023/03/04 05:25:44;;;;;;;19.48;8.93;;;;;;;;;;5032867;28;20026;-64
2023/03/04 05:28:11;;;;;;;18.00;9.18;;;;;;;;;;5031502;28;20021;-64
2023/03/04 05:30:38;;;;;;;21.17;9.70;;;;;;;;;;5032893;28;20432;-63
2023/03/04 05:33:04;;;;;;;21.63;9.80;;;;;;;;;;5031461;28;20057;-63
2023/03/04 05:35:30;;;;;;;22.80;9.30;;;;;;;;;;5031333;28;20224;-63
2023/03/04 05:37:56;;;;;;;22.95;10.63;;;;;;;;;;5031370;28;20065;-63
2023/03/04 05:40:24;;;;;;;18.33;9.68;;;;;;;;;;5031277;28;20068;-63
2023/03/04 05:42:50;;;;;;;21.00;9.77;;;;;;;;;;5032316;28;20018;-63
2023/03/04 05:45:16;;;;;;;16.50;9.10;;;;;;;;;;5032192;28;20083;-63
2023/03/04 05:47:42;;;;;;;19.00;9.15;;;;;;;;;;5031356;28;20024;-63
2023/03/04 05:50:08;;;;;;;20.27;9.40;;;;;;;;;;5032965;28;20033;-63
2023/03/04 05:52:34;;;;;;;20.88;9.98;;;;;;;;;;5032013;28;20477;-63
2023/03/04 05:55:00;;;;;;;22.33;10.35;;;;;;;;;;5032303;28;20026;-64
2023/03/04 05:57:26;;;;;;;16.48;10.07;;;;;;;;;;5032245;28;20043;-64
2023/03/04 05:59:52;;;;;;;20.83;9.77;;;;;;;;;;5032428;28;20097;-64
2023/03/04 06:02:18;;;;;;;30.98;10.88;;;;;;;;;;5032453;28;20417;-63
2023/03/04 06:04:44;;;;;;;22.33;10.68;;;;;;;;;;5030874;28;20124;-64
2023/03/04 06:09:45;;;;;;;19.40;10.00;;;;;;;;;;5019538;28;20515;-57
2023/03/04 06:12:11;;;;;;;17.17;10.40;;;;;;;;;;5021094;28;20157;-58
2023/03/04 06:14:37;;;;;;;16.05;9.77;;;;;;;;;;5026384;28;20017;-59
2023/03/04 06:17:03;;;;;;;20.83;10.43;;;;;;;;;;5027029;28;20030;-58
2023/03/04 06:19:30;;;;;;;18.60;10.02;;;;;;;;;;5031827;28;20120;-57
2023/03/04 06:21:55;;;;;;;24.02;11.05;;;;;;;;;;5021050;28;20033;-59
2023/03/04 06:24:22;;;;;;;20.17;11.15;;;;;;;;;;4993060;28;20026;-59
2023/03/04 06:26:47;;;;;;;17.45;10.18;;;;;;;;;;5021649;28;20425;-59
2023/03/04 06:29:13;;;;;;;18.50;10.00;;;;;;;;;;5026509;28;20013;-57
2023/03/04 06:31:42;;;;;;;20.15;10.52;;;;;;;;;;5023358;28;20021;-59
2023/03/04 06:34:08;;;;;;;19.35;10.32;;;;;;;;;;5031464;28;20075;-60
2023/03/04 06:36:35;;;;;;;19.08;9.82;;;;;;;;;;5031851;28;20111;-57
2023/03/04 06:39:04;;;;;;;20.02;9.98;;;;;;;;;;5031618;28;20026;-59
2023/03/04 06:41:30;;;;;;;17.75;10.27;;;;;;;;;;5025249;28;20025;-59
2023/03/04 06:43:56;;;;;;;19.20;10.00;;;;;;;;;;5011540;28;20497;-60
2023/03/04 06:46:22;;;;;;;19.40;10.10;;;;;;;;;;5005763;28;20501;-59
2023/03/04 06:48:48;;;;;;;18.65;10.02;;;;;;;;;;5023034;28;20026;-57
2023/03/04 06:51:15;;;;;;;18.25;10.18;;;;;;;;;;5031434;28;20041;-59
2023/03/04 06:53:41;;;;;;;19.20;11.10;;;;;;;;;;5030900;28;20033;-57
2023/03/04 06:56:08;;;;;;;16.65;10.02;;;;;;;;;;5013609;28;20036;-60
2023/03/04 06:58:34;;;;;;;17.10;9.90;;;;;;;;;;5031309;28;20163;-59
2023/03/04 07:01:30;;;;;;;22.42;10.32;;;;;;;;;;5031470;28;20060;-59
2023/03/04 07:03:56;;;;;;;17.98;10.68;;;;;;;;;;5006148;28;20069;-57
2023/03/04 07:06:24;;;;;;;22.40;9.98;;;;;;;;;;5031560;28;20419;-58
2023/03/04 07:08:50;;;;;;;19.95;10.43;;;;;;;;;;5025574;28;20053;-60
2023/03/04 07:11:17;;;;;;;19.45;9.80;;;;;;;;;;5011615;28;20091;-59
2023/03/04 07:13:43;;;;;;;19.27;9.70;;;;;;;;;;5012432;28;20048;-59
2023/03/04 07:16:11;;;;;;;17.08;9.45;;;;;;;;;;5022965;28;20021;-60
2023/03/04 07:18:37;;;;;;;18.93;9.23;;;;;;;;;;5031056;28;20106;-58
2023/03/04 07:21:04;;;;;;;20.67;9.50;;;;;;;;;;5013303;28;20036;-59
2023/03/04 07:23:30;;;;;;;16.65;9.43;;;;;;;;;;5030867;28;20049;-60
2023/03/04 07:25:56;;;;;;;18.90;9.27;;;;;;;;;;5013220;28;20052;-56
2023/03/04 07:28:22;;;;;;;21.80;10.57;;;;;;;;;;5030974;28;20493;-60
2023/03/04 07:30:48;;;;;;;19.52;9.77;;;;;;;;;;5013457;28;20069;-59
2023/03/04 07:33:14;;;;;;;16.88;9.60;;;;;;;;;;5030816;28;20039;-59
2023/03/04 07:35:40;;;;;;;18.48;9.35;;;;;;;;;;5034187;28;20021;-60
2023/03/04 07:38:06;;;;;;;31.73;10.55;;;;;;;;;;5035905;28;20041;-60
2023/03/04 07:40:32;;;;;;;21.20;9.30;;;;;;;;;;5042400;28;20482;-57
2023/03/04 07:42:58;;;;;;;17.45;8.93;;;;;;;;;;5033375;28;20033;-57
2023/03/04 07:45:24;;;;;;;17.40;9.15;;;;;;;;;;5014297;28;20026;-58
2023/03/04 07:47:51;;;;;;;20.83;10.38;;;;;;;;;;5015706;28;20033;-57
2023/03/04 07:50:17;;;;;;;19.45;10.48;;;;;;;;;;5014580;28;20206;-59
2023/03/04 07:52:45;;;;;;;18.08;9.27;;;;;;;;;;5014593;28;20335;-59
2023/03/04 07:55:11;;;;;;;17.35;9.05;;;;;;;;;;5014332;28;20061;-58
2023/03/04 07:57:41;;;;;;;24.25;10.48;;;;;;;;;;5014666;28;20030;-59
2023/03/04 08:00:07;;;;;;;16.92;9.05;;;;;;;;;;5014797;28;20026;-58
2023/03/04 08:02:33;;;;;;;22.92;11.10;;;;;;;;;;5014944;28;20536;-60
2023/03/04 08:04:59;;;;;;;17.05;9.18;;;;;;;;;;5013478;28;20482;-59
2023/03/04 08:07:25;;;;;;;19.20;9.55;;;;;;;;;;5013322;28;20022;-59
2023/03/04 08:09:51;;;;;;;18.85;9.40;;;;;;;;;;5014243;28;20107;-58
2023/03/04 08:12:17;;;;;;;18.13;10.40;;;;;;;;;;4996741;28;20023;-58
2023/03/04 08:14:43;;;;;;;18.10;10.07;;;;;;;;;;5014095;28;20061;-57
2023/03/04 08:17:09;;;;;;;18.45;10.20;;;;;;;;;;5014176;28;20606;-58
2023/03/04 08:19:35;;;;;;;19.48;10.40;;;;;;;;;;4996441;28;20053;-58
2023/03/04 08:22:02;;;;;;;20.33;10.60;;;;;;;;;;5013942;28;20499;-59
2023/03/04 08:24:28;;;;;;;17.05;10.88;;;;;;;;;;5013860;28;20529;-58
2023/03/04 08:26:54;;;;;;;21.30;11.40;;;;;;;;;;5014035;28;20022;-58
2023/03/04 08:29:21;;;;;;;18.83;10.50;;;;;;;;;;4996310;28;20030;-58
2023/03/04 08:31:48;;;;;;;16.92;10.45;;;;;;;;;;4996272;28;20080;-57
2023/03/04 08:34:15;;;;;;;19.00;10.57;;;;;;;;;;5013424;28;20064;-58
2023/03/04 08:36:41;;;;;;;16.92;11.20;;;;;;;;;;5014267;28;20033;-56
2023/03/04 08:39:08;;;;;;;22.10;11.90;;;;;;;;;;5014228;28;20041;-55
2023/03/04 08:41:33;;;;;;;24.48;13.35;;;;;;;;;;5014145;28;20026;-58
2023/03/04 08:44:00;;;;;;;17.55;12.10;;;;;;;;;;5013153;28;20030;-57
2023/03/04 08:46:26;;;;;;;16.45;11.65;;;;;;;;;;5013190;28;20018;-59
2023/03/04 08:48:52;;;;;;;20.08;11.95;;;;;;;;;;5013707;28;20496;-58
2023/03/04 08:51:18;;;;;;;18.33;11.77;;;;;;;;;;5013756;28;20053;-59
2023/03/04 08:53:45;;;;;;;18.80;11.75;;;;;;;;;;5013225;28;20030;-60
2023/03/04 08:56:11;;;;;;;19.33;11.25;;;;;;;;;;5013296;28;20509;-59
2023/03/04 08:58:37;;;;;;;20.50;11.95;;;;;;;;;;4995645;28;20026;-57
2023/03/04 09:01:04;;;;;;;20.98;11.90;;;;;;;;;;4995593;28;20474;-59
2023/03/04 09:03:30;;;;;;;21.58;12.18;;;;;;;;;;5013135;28;20556;-58
2023/03/04 09:05:56;;;;;;;21.25;12.35;;;;;;;;;;5013605;28;20052;-58
2023/03/04 09:08:22;;;;;;;20.15;11.80;;;;;;;;;;5013121;28;20088;-54
2023/03/04 09:10:51;;;;;;;19.15;12.13;;;;;;;;;;5017437;28;20025;-56
2023/03/04 09:13:17;;;;;;;17.30;11.32;;;;;;;;;;5015577;28;20034;-57
2023/03/04 09:15:47;;;;;;;20.42;12.68;;;;;;;;;;4996686;28;20375;-57
2023/03/04 09:18:13;;;;;;;19.52;12.82;;;;;;;;;;5013932;28;20516;-66
2023/03/04 09:20:40;;;;;;;17.85;11.52;;;;;;;;;;5013866;28;20041;-65
2023/03/04 09:23:08;;;;;;;17.13;10.10;;;;;;;;;;5012470;28;20022;-64
2023/03/04 09:25:34;;;;;;;19.75;11.43;;;;;;;;;;5012895;28;20021;-65
2023/03/04 09:28:00;;;;;;;24.58;12.18;;;;;;;;;;5012783;28;20026;-64
2023/03/04 09:30:26;;;;;;;20.88;10.55;;;;;;;;;;5012743;28;20597;-62
2023/03/04 09:32:52;;;;;;;18.42;11.77;;;;;;;;;;4995114;28;20037;-64
2023/03/04 09:35:18;;;;;;;18.73;12.10;;;;;;;;;;5012500;28;20033;-63
2023/03/04 09:37:45;;;;;;;20.23;11.70;;;;;;;;;;4995187;28;20036;-64
2023/03/04 09:40:17;;;;;;;18.80;11.70;;;;;;;;;;5012566;28;20774;-65
2023/03/04 09:42:45;;;;;;;18.98;12.02;;;;;;;;;;5012824;28;20036;-64
2023/03/04 09:45:15;;;;;;;17.25;10.73;;;;;;;;;;5012520;28;20383;-63
2023/03/04 09:47:42;;;;;;;18.45;11.57;;;;;;;;;;5012360;28;20549;-61
2023/03/04 09:50:09;;;;;;;17.75;11.38;;;;;;;;;;5012401;28;20029;-65
2023/03/04 09:52:41;;;;;;;18.70;11.10;;;;;;;;;;5012454;28;20101;-64
2023/03/04 09:55:21;;;;;;;19.20;10.40;;;;;;;;;;4994545;28;20032;-64
2023/03/04 09:57:47;;;;;;;17.60;10.20;;;;;;;;;;4994032;28;20097;-62
2023/03/04 10:00:18;;;;;;;18.33;10.20;;;;;;;;;;5012369;28;20036;-63
2023/03/04 10:03:02;;;;;;;19.52;10.38;;;;;;;;;;5012384;28;20100;-64
2023/03/04 10:05:29;;;;;;;23.50;10.57;;;;;;;;;;4994666;28;20453;-64
2023/03/04 10:07:56;;;;;;;16.75;10.55;;;;;;;;;;4994297;28;20088;-61
2023/03/04 10:10:25;;;;;;;16.33;9.90;;;;;;;;;;5012048;28;20446;-62
2023/03/04 10:12:53;;;;;;;18.70;10.20;;;;;;;;;;5012047;28;20584;-63
2023/03/04 10:15:25;;;;;;;16.85;9.27;;;;;;;;;;5011560;28;20032;-63
2023/03/04 10:17:55;;;;;;;15.88;9.98;;;;;;;;;;5011891;28;20125;-63
2023/03/04 10:20:22;;;;;;;16.52;9.30;;;;;;;;;;5012024;28;20034;-61
2023/03/04 10:22:50;;;;;;;15.63;8.40;;;;;;;;;;5012481;28;20025;-61
2023/03/04 10:25:24;;;;;;;15.48;8.27;;;;;;;;;;5011209;28;20276;-60
2023/03/04 10:28:01;;;;;;;16.70;8.63;;;;;;;;;;5020231;28;20083;-60
2023/03/04 10:30:46;;;;;;;15.83;8.97;;;;;;;;;;5030923;28;20029;-61
2023/03/04 10:33:13;;;;;;;16.25;9.70;;;;;;;;;;5031735;28;20271;-57
2023/03/04 10:35:43;;;;;;;17.27;9.30;;;;;;;;;;5023524;28;20033;-58
2023/03/04 10:38:09;;;;;;;16.67;10.30;;;;;;;;;;5042247;28;20400;-58
2023/03/04 10:40:40;;;;;;;19.63;10.15;;;;;;;;;;5040000;28;20205;-52
2023/03/04 10:43:07;;;;;;;17.70;9.23;;;;;;;;;;5020710;28;20024;-58
2023/03/04 10:45:37;;;;;;;16.65;8.57;;;;;;;;;;5036881;28;20077;-57
2023/03/04 10:48:04;;;;;;;19.33;9.90;;;;;;;;;;5032053;28;20022;-60
2023/03/04 10:50:31;;;;;;;17.48;10.10;;;;;;;;;;5031271;28;20490;-59
2023/03/04 10:52:57;;;;;;;15.57;9.40;;;;;;;;;;5013645;28;20037;-54
2023/03/04 10:55:41;;;;;;;19.75;10.60;;;;;;;;;;5031206;28;20486;-62
2023/03/04 10:58:12;;;;;;;17.40;11.30;;;;;;;;;;5031063;28;20022;-59
2023/03/04 11:00:40;;;;;;;17.15;10.88;;;;;;;;;;5031108;28;20025;-62
2023/03/04 11:03:29;;;;;;;18.23;12.70;;;;;;;;;;5030806;28;20088;-58
2023/03/04 11:06:05;;;;;;;17.45;15.00;;;;;;;;;;5015829;28;20033;-60
2023/03/04 11:08:31;;;;;;;19.27;17.27;;;;;;;;;;5012727;28;20033;-58
2023/03/04 11:10:57;;;;;;;20.27;18.17;;;;;;;;;;5024017;28;20092;-61
2023/03/04 11:13:24;;;;;;;20.38;18.38;;;;;;;;;;5016401;28;20022;-59
2023/03/04 11:15:52;;;;;;;21.00;18.80;;;;;;;;;;5025416;28;20021;-60
2023/03/04 11:18:37;;;;;;;21.10;19.00;;;;;;;;;;5026319;28;20025;-59
2023/03/04 11:21:03;;;;;;;21.40;19.30;;;;;;;;;;5019340;28;20481;-58
2023/03/04 11:23:34;;;;;;;21.38;19.27;;;;;;;;;;5022583;28;20017;-58
2023/03/04 11:26:06;;;;;;;18.50;15.98;;;;;;;;;;5014224;28;20377;-57
2023/03/04 11:28:39;;;;;;;18.00;13.27;;;;;;;;;;5025241;28;20017;-58
2023/03/04 11:31:17;;;;;;;16.65;13.40;;;;;;;;;;5014758;28;20052;-59
2023/03/04 11:33:53;;;;;;;17.00;12.60;;;;;;;;;;4996649;28;20030;-57
2023/03/04 11:36:28;;;;;;;17.30;12.18;;;;;;;;;;5017535;28;20318;-59
2023/03/04 11:38:55;;;;;;;15.85;12.63;;;;;;;;;;5014336;28;20514;-58
2023/03/04 11:41:30;;;;;;;16.00;12.95;;;;;;;;;;5014458;28;20033;-59
2023/03/04 11:43:56;;;;;;;17.67;14.27;;;;;;;;;;5014637;28;20044;-60
2023/03/04 11:46:36;;;;;;;17.25;14.25;;;;;;;;;;5014698;28;20018;-63
2023/03/04 11:49:20;;;;;;;17.15;13.75;;;;;;;;;;5014434;28;20026;-59
2023/03/04 11:51:55;;;;;;;19.50;17.58;;;;;;;;;;5014415;28;20032;-61
2023/03/04 11:54:24;;;;;;;19.88;17.85;;;;;;;;;;5014007;28;20081;-62
2023/03/04 11:56:58;;;;;;;20.83;18.73;;;;;;;;;;4996434;28;20025;-59
2023/03/04 11:59:36;;;;;;;19.15;17.23;;;;;;;;;;5013687;28;20022;-60
2023/03/04 12:02:31;;;;;;;21.33;17.60;;;;;;;;;;5021515;28;20091;-60
2023/03/04 12:04:57;;;;;;;20.40;18.13;;;;;;;;;;4970728;28;20135;-60
2023/03/04 12:07:29;;;;;;;18.67;16.65;;;;;;;;;;5030104;28;20025;-61
2023/03/04 12:10:21;;;;;;;20.45;15.52;;;;;;;;;;5066273;22;20406;-64
2023/03/04 12:13:01;;;;;;;15.95;13.00;;;;;;;;;;5029461;28;20051;-60
2023/03/04 12:15:49;;;;;;;18.42;11.60;;;;;;;;;;5048337;28;20017;-64
2023/03/04 12:18:22;;;;;;;22.48;13.07;;;;;;;;;;5042906;28;20104;-64
2023/03/04 12:20:47;;;;;;;16.90;9.90;;;;;;;;;;5051347;28;20021;-61
2023/03/04 12:23:34;;;;;;;17.42;9.73;;;;;;;;;;5035651;28;20031;-64
2023/03/04 12:26:15;;;;;;;17.27;8.95;;;;;;;;;;5031958;28;20035;-63
2023/03/04 12:28:56;;;;;;;17.80;9.10;;;;;;;;;;5053537;28;20038;-64
2023/03/04 12:31:28;;;;;;;17.63;8.55;;;;;;;;;;5053086;28;20025;-64
2023/03/04 12:33:54;;;;;;;18.20;8.32;;;;;;;;;;5053313;28;20025;-62
2023/03/04 12:36:23;;;;;;;15.00;8.40;;;;;;;;;;4699642;28;10000290;-62
2023/03/04 12:38:54;;;;;;;18.27;9.60;;;;;;;;;;5049686;28;20078;-64
2023/03/04 12:41:29;;;;;;;18.20;9.50;;;;;;;;;;5028280;28;20017;-64
2023/03/04 12:44:11;;;;;;;17.45;9.73;;;;;;;;;;5044393;28;20384;-64
2023/03/04 12:46:55;;;;;;;18.20;9.43;;;;;;;;;;5049033;28;20405;-64
2023/03/04 12:49:41;;;;;;;16.80;8.98;;;;;;;;;;5050550;28;20029;-63
2023/03/04 12:52:09;;;;;;;17.58;9.35;;;;;;;;;;5050360;28;20102;-63
2023/03/04 12:54:40;;;;;;;18.80;8.90;;;;;;;;;;5032306;28;20021;-61
2023/03/04 12:57:14;;;;;;;20.02;9.45;;;;;;;;;;5032848;28;20040;-63
2023/03/04 12:59:52;;;;;;;21.90;8.90;;;;;;;;;;5030536;28;20037;-63
2023/03/04 13:02:27;;;;;;;17.50;9.10;;;;;;;;;;5016862;28;20068;-61
2023/03/04 13:04:53;;;;;;;19.38;8.00;;;;;;;;;;5033507;28;20485;-62
2023/03/04 13:07:38;;;;;;;20.27;8.13;;;;;;;;;;5030951;28;20682;-64
2023/03/04 13:10:09;;;;;;;18.65;8.68;;;;;;;;;;5033769;28;20036;-63
2023/03/04 13:12:46;;;;;;;18.08;8.30;;;;;;;;;;5050405;28;20066;-65
2023/03/04 13:15:12;;;;;;;16.98;8.18;;;;;;;;;;5049700;28;20469;-63
2023/03/04 13:17:44;;;;;;;15.98;9.02;;;;;;;;;;5032170;28;20025;-62
2023/03/04 13:20:29;;;;;;;17.20;8.90;;;;;;;;;;5049653;28;20346;-63
2023/03/04 13:23:13;;;;;;;19.73;8.50;;;;;;;;;;5050071;28;20527;-63
2023/03/04 13:25:43;;;;;;;16.73;8.60;;;;;;;;;;5050122;28;20342;-63
2023/03/04 13:28:08;;;;;;;17.17;8.73;;;;;;;;;;5050179;28;20025;-62
2023/03/04 13:30:36;;;;;;;19.05;8.93;;;;;;;;;;5031885;28;20451;-65
2023/03/04 13:33:08;;;;;;;15.10;8.43;;;;;;;;;;5048908;28;20025;-64
2023/03/04 13:35:46;;;;;;;16.48;8.35;;;;;;;;;;5047068;28;20029;-65
2023/03/04 13:38:21;;;;;;;19.15;8.70;;;;;;;;;;5043765;28;20032;-66
2023/03/04 13:41:06;;;;;;;17.95;9.52;;;;;;;;;;5031264;28;20033;-65
2023/03/04 13:43:40;;;;;;;16.92;8.65;;;;;;;;;;5021250;28;20017;-65
2023/03/04 13:46:18;;;;;;;20.55;8.75;;;;;;;;;;5031477;28;20516;-63
2023/03/04 13:48:53;;;;;;;16.05;8.07;;;;;;;;;;5049171;28;20023;-64
2023/03/04 13:51:21;;;;;;;17.63;8.40;;;;;;;;;;5048466;28;20485;-66
2023/03/04 13:53:54;;;;;;;19.40;8.93;;;;;;;;;;5023507;28;20034;-65
2023/03/04 13:56:20;;;;;;;16.02;8.48;;;;;;;;;;5049826;28;20096;-65
2023/03/04 13:58:48;;;;;;;16.10;8.20;;;;;;;;;;5050175;28;20031;-65
2023/03/04 14:01:23;;;;;;;16.38;8.40;;;;;;;;;;5033864;28;20029;-63
2023/03/04 14:03:49;;;;;;;15.75;8.15;;;;;;;;;;5033791;28;20021;-64
2023/03/04 14:06:17;;;;;;;16.40;7.60;;;;;;;;;;5051821;28;20032;-64
2023/03/04 14:08:44;;;;;;;16.23;8.13;;;;;;;;;;5051655;28;20401;-65
2023/03/04 14:11:12;;;;;;;20.58;8.25;;;;;;;;;;5039170;28;20137;-65
2023/03/04 14:13:38;;;;;;;;;;;;;;;;;;5017748;28;20021;-64
2023/03/04 14:16:04;;;;;;;17.60;8.30;;;;;;;;;;5051823;28;19912;-64
2023/03/04 14:18:30;;;;;;;14.80;8.43;;;;;;;;;;5033961;28;20074;-65
2023/03/04 14:20:58;;;;;;;17.75;8.35;;;;;;;;;;5033645;28;20379;-64
2023/03/04 14:23:27;;;;;;;22.70;8.38;;;;;;;;;;5051909;28;20090;-64
2023/03/04 14:26:03;;;;;;;17.73;8.38;;;;;;;;;;5033829;28;20021;-63
2023/03/04 14:28:29;;;;;;;18.83;8.63;;;;;;;;;;5033395;28;20057;-65
2023/03/04 14:30:56;;;;;;;15.32;7.60;;;;;;;;;;5049290;28;20118;-65
2023/03/04 14:33:26;;;;;;;16.27;8.00;;;;;;;;;;5031739;28;20056;-63